Terminal Aerodrome Forecast
Issued by NWS

Home | Current Version | Previous Version | Text Only | Print | Product List | Glossary On
Versions: 1 2 3 4 5 6 7 8 9 10 11 12 13 14 15
130
FTUS45 KTFX 081957 AAA
TAFCTB
TAF AMD
KCTB 081957Z 0820/0918 26018KT P6SM SCT200
      TEMPO 0820/0824 26022G30KT
     FM090200 26011KT P6SM SKC=

USA.gov is the U.S. government's official web portal to all federal, state and local government web resources and services.